Time;durP1;ratioP1;P1;durP2;ratioP2;P2;SDS_P1;SDS_P2;PMS_P1;PMS_P2;Temp;Humidity;BMP_temperature;BMP_pressure;BME280_temperature;BME280_humidity;BME280_pressure;Samples;Min_cycle;Max_cycle;Signal;HPM_P1;HPM_P2
2023/04/03 00:02:26;;;;;;;0.43;0.43;;;;;;;;;;5091407;28;20210;-59
2023/04/03 00:04:53;;;;;;;0.53;0.40;;;;;;;;;;5090714;28;20598;-59
2023/04/03 00:07:22;;;;;;;0.57;0.57;;;;;;;;;;5091260;28;20222;-60
2023/04/03 00:09:49;;;;;;;2.20;0.50;;;;;;;;;;5091009;28;20205;-60
2023/04/03 00:12:16;;;;;;;0.97;0.60;;;;;;;;;;5090727;28;20230;-59
2023/04/03 00:14:43;;;;;;;2.10;0.67;;;;;;;;;;5090840;28;20213;-60
2023/04/03 00:17:10;;;;;;;0.33;0.33;;;;;;;;;;5091006;28;20203;-58
2023/04/03 00:19:37;;;;;;;0.40;0.40;;;;;;;;;;5090938;28;20207;-58
2023/04/03 00:22:04;;;;;;;1.73;0.70;;;;;;;;;;5090879;28;20734;-58
2023/04/03 00:24:32;;;;;;;0.53;0.50;;;;;;;;;;5070714;28;20266;-58
2023/04/03 00:26:59;;;;;;;0.97;0.60;;;;;;;;;;5081757;28;20197;-59
2023/04/03 00:29:26;;;;;;;0.80;0.80;;;;;;;;;;5090415;28;20218;-59
2023/04/03 00:31:54;;;;;;;0.50;0.50;;;;;;;;;;5090657;28;20205;-59
2023/04/03 00:34:21;;;;;;;0.60;0.60;;;;;;;;;;5090723;28;20209;-59
2023/04/03 00:36:48;;;;;;;0.30;0.30;;;;;;;;;;5090389;28;20203;-59
2023/04/03 00:39:15;;;;;;;0.50;0.50;;;;;;;;;;5090843;28;20782;-59
2023/04/03 00:41:43;;;;;;;0.50;0.50;;;;;;;;;;5090465;28;20206;-59
2023/04/03 00:44:21;;;;;;;0.57;0.53;;;;;;;;;;5090871;28;20224;-59
2023/04/03 00:46:48;;;;;;;0.77;0.53;;;;;;;;;;5090428;28;20201;-59
2023/04/03 00:49:15;;;;;;;0.50;0.50;;;;;;;;;;5090186;28;20226;-59
2023/04/03 00:51:42;;;;;;;1.23;0.50;;;;;;;;;;5090154;28;20626;-59
2023/04/03 00:54:27;;;;;;;0.70;0.70;;;;;;;;;;5090241;28;20213;-59
2023/04/03 00:56:56;;;;;;;0.40;0.40;;;;;;;;;;5090065;28;20221;-59
2023/04/03 00:59:26;;;;;;;0.60;0.60;;;;;;;;;;5068007;28;20213;-59
2023/04/03 01:01:54;;;;;;;5.87;0.50;;;;;;;;;;5085127;28;20210;-59
2023/04/03 01:04:28;;;;;;;0.50;0.50;;;;;;;;;;5088742;28;20256;-59
2023/04/03 01:06:55;;;;;;;0.80;0.80;;;;;;;;;;5087611;28;20198;-58
2023/04/03 01:09:23;;;;;;;0.60;0.60;;;;;;;;;;5090176;28;20225;-59
2023/04/03 01:11:50;;;;;;;1.70;0.50;;;;;;;;;;5089789;28;20573;-59
2023/04/03 01:14:18;;;;;;;1.70;1.20;;;;;;;;;;5089827;28;20202;-59
2023/04/03 01:16:53;;;;;;;3.53;2.47;;;;;;;;;;5089415;28;20208;-59
2023/04/03 01:19:21;;;;;;;7.17;2.10;;;;;;;;;;5089529;28;20263;-59
2023/04/03 01:22:04;;;;;;;2.07;1.73;;;;;;;;;;5089457;28;20256;-58
2023/04/03 01:24:36;;;;;;;2.90;1.57;;;;;;;;;;5087193;28;20259;-58
2023/04/03 01:27:04;;;;;;;5.07;1.27;;;;;;;;;;5088819;28;20201;-59
2023/04/03 01:29:33;;;;;;;1.60;0.90;;;;;;;;;;5089729;28;20271;-59
2023/04/03 01:32:01;;;;;;;0.50;0.50;;;;;;;;;;5089440;28;20206;-59
2023/04/03 01:34:29;;;;;;;0.90;0.90;;;;;;;;;;5089355;28;20209;-59
2023/04/03 01:36:56;;;;;;;0.90;0.90;;;;;;;;;;5088817;28;20205;-59
2023/04/03 01:39:24;;;;;;;1.27;1.07;;;;;;;;;;5089765;28;20432;-60
2023/04/03 01:41:51;;;;;;;0.70;0.70;;;;;;;;;;5089234;28;20202;-59
2023/04/03 01:44:18;;;;;;;1.23;1.17;;;;;;;;;;5089154;28;20205;-59
2023/04/03 01:46:45;;;;;;;2.13;1.10;;;;;;;;;;5089270;28;20620;-60
2023/04/03 01:49:13;;;;;;;1.03;0.67;;;;;;;;;;5089108;28;20297;-58
2023/04/03 01:51:40;;;;;;;0.40;0.40;;;;;;;;;;5089352;28;20236;-59
2023/04/03 01:54:08;;;;;;;0.77;0.43;;;;;;;;;;5088958;28;20206;-59
2023/04/03 01:56:35;;;;;;;0.50;0.50;;;;;;;;;;5089364;28;20209;-59
2023/04/03 01:59:02;;;;;;;2.50;0.97;;;;;;;;;;5088809;28;20598;-59
2023/04/03 02:01:29;;;;;;;1.73;1.00;;;;;;;;;;5088964;28;20194;-59
2023/04/03 02:03:56;;;;;;;1.80;0.90;;;;;;;;;;5076757;28;20209;-59
2023/04/03 02:06:25;;;;;;;1.90;1.33;;;;;;;;;;5089415;28;20198;-59
2023/04/03 02:08:52;;;;;;;1.17;1.10;;;;;;;;;;5088682;28;20287;-59
2023/04/03 02:11:20;;;;;;;0.50;0.50;;;;;;;;;;5089254;28;20202;-59
2023/04/03 02:13:47;;;;;;;0.70;0.50;;;;;;;;;;5088823;28;20221;-59
2023/04/03 02:16:14;;;;;;;0.60;0.60;;;;;;;;;;5089055;28;20221;-59
2023/04/03 02:18:41;;;;;;;0.40;0.40;;;;;;;;;;5088844;28;20800;-59
2023/04/03 02:21:08;;;;;;;1.23;0.60;;;;;;;;;;5088479;28;20201;-59
2023/04/03 02:23:36;;;;;;;0.50;0.50;;;;;;;;;;5088605;28;20254;-59
2023/04/03 02:26:05;;;;;;;1.70;0.70;;;;;;;;;;5088582;28;20234;-59
2023/04/03 02:28:32;;;;;;;1.40;0.50;;;;;;;;;;5088581;28;20403;-59
2023/04/03 02:30:59;;;;;;;0.30;0.30;;;;;;;;;;5088130;28;20511;-59
2023/04/03 02:33:26;;;;;;;1.17;0.60;;;;;;;;;;5088850;28;20225;-59
2023/04/03 02:35:54;;;;;;;7.47;0.50;;;;;;;;;;5088354;28;20215;-59
2023/04/03 02:38:21;;;;;;;0.40;0.40;;;;;;;;;;5089016;28;20568;-59
2023/04/03 02:40:50;;;;;;;0.77;0.40;;;;;;;;;;5088018;28;20666;-59
2023/04/03 02:43:17;;;;;;;0.40;0.40;;;;;;;;;;5088485;28;20292;-59
2023/04/03 02:45:45;;;;;;;1.20;0.37;;;;;;;;;;5088661;28;20207;-59
2023/04/03 02:48:12;;;;;;;0.60;0.60;;;;;;;;;;5088602;28;20247;-58
2023/04/03 02:50:39;;;;;;;0.50;0.50;;;;;;;;;;5088402;28;20219;-59
2023/04/03 02:53:06;;;;;;;3.70;0.63;;;;;;;;;;5088047;28;20198;-59
2023/04/03 02:55:33;;;;;;;0.37;0.37;;;;;;;;;;5088263;28;20209;-59
2023/04/03 02:58:01;;;;;;;0.87;0.87;;;;;;;;;;5088378;28;20198;-58
2023/04/03 03:00:28;;;;;;;0.47;0.47;;;;;;;;;;5088463;28;20209;-59
2023/04/03 03:02:55;;;;;;;0.77;0.57;;;;;;;;;;5088074;28;20213;-59
2023/04/03 03:05:22;;;;;;;1.27;0.57;;;;;;;;;;5088417;28;20792;-59
2023/04/03 03:07:49;;;;;;;0.30;0.30;;;;;;;;;;5088026;28;20671;-60
2023/04/03 03:10:17;;;;;;;0.30;0.30;;;;;;;;;;5088218;28;20648;-59
2023/04/03 03:12:44;;;;;;;0.57;0.57;;;;;;;;;;5088519;28;20205;-59
2023/04/03 03:15:12;;;;;;;1.23;1.00;;;;;;;;;;5088031;28;20205;-59
2023/04/03 03:17:40;;;;;;;4.87;0.87;;;;;;;;;;5087995;28;20201;-59
2023/04/03 03:20:07;;;;;;;0.30;0.30;;;;;;;;;;5088368;28;20806;-59
2023/04/03 03:22:35;;;;;;;5.27;0.50;;;;;;;;;;5087889;28;20228;-60
2023/04/03 03:25:03;;;;;;;2.57;0.70;;;;;;;;;;5088090;28;20211;-59
2023/04/03 03:27:30;;;;;;;0.30;0.30;;;;;;;;;;5088265;28;20297;-59
2023/04/03 03:29:57;;;;;;;0.40;0.40;;;;;;;;;;5087828;28;20221;-59
2023/04/03 03:32:25;;;;;;;0.20;0.20;;;;;;;;;;5088191;28;20612;-59
2023/04/03 03:34:52;;;;;;;0.40;0.40;;;;;;;;;;5088090;28;20609;-59
2023/04/03 03:37:19;;;;;;;0.57;0.57;;;;;;;;;;5087970;28;20221;-59
2023/04/03 03:39:46;;;;;;;3.90;0.47;;;;;;;;;;5087920;28;20209;-59
2023/04/03 03:42:14;;;;;;;1.83;0.70;;;;;;;;;;5088127;28;20223;-60
2023/04/03 03:44:41;;;;;;;0.20;0.20;;;;;;;;;;5087787;28;20204;-59
2023/04/03 03:47:10;;;;;;;0.30;0.20;;;;;;;;;;5089686;28;20206;-59
2023/04/03 03:49:39;;;;;;;0.40;0.40;;;;;;;;;;5091827;28;20382;-60
2023/04/03 03:52:06;;;;;;;1.07;0.60;;;;;;;;;;5091349;28;20220;-59
2023/04/03 03:54:33;;;;;;;0.20;0.20;;;;;;;;;;5091394;28;20629;-60
2023/04/03 03:57:00;;;;;;;0.20;0.20;;;;;;;;;;5091066;28;20213;-59
2023/04/03 03:59:27;;;;;;;0.20;0.20;;;;;;;;;;5091717;28;20373;-59
2023/04/03 04:01:54;;;;;;;0.30;0.30;;;;;;;;;;5078184;28;20210;-59
2023/04/03 04:04:21;;;;;;;0.60;0.60;;;;;;;;;;5091581;28;20276;-59
2023/04/03 04:06:50;;;;;;;0.47;0.47;;;;;;;;;;5090716;28;20211;-59
2023/04/03 04:09:17;;;;;;;0.33;0.33;;;;;;;;;;5091404;28;20320;-59
2023/04/03 04:11:44;;;;;;;0.30;0.30;;;;;;;;;;5091103;28;20283;-59
2023/04/03 04:14:12;;;;;;;0.20;0.20;;;;;;;;;;5091241;28;20647;-59
2023/04/03 04:16:39;;;;;;;1.80;0.30;;;;;;;;;;5090210;28;20207;-59
2023/04/03 04:19:06;;;;;;;0.13;0.13;;;;;;;;;;5091011;28;20195;-59
2023/04/03 04:21:33;;;;;;;0.30;0.20;;;;;;;;;;5090721;28;20207;-59
2023/04/03 04:24:01;;;;;;;4.77;0.63;;;;;;;;;;5090458;28;20584;-59
2023/04/03 04:26:28;;;;;;;0.30;0.30;;;;;;;;;;5090952;28;20213;-59
2023/04/03 04:28:55;;;;;;;0.30;0.30;;;;;;;;;;5090812;28;20228;-59
2023/04/03 04:31:22;;;;;;;0.30;0.30;;;;;;;;;;5090688;28;20201;-59
2023/04/03 04:33:49;;;;;;;0.17;0.17;;;;;;;;;;5090461;28;20206;-59
2023/04/03 04:36:16;;;;;;;0.30;0.30;;;;;;;;;;5090856;28;20198;-59
2023/04/03 04:38:44;;;;;;;0.40;0.20;;;;;;;;;;5089173;28;20213;-59
2023/04/03 04:41:12;;;;;;;3.00;0.40;;;;;;;;;;5090456;28;20204;-59
2023/04/03 04:43:39;;;;;;;0.17;0.17;;;;;;;;;;5090649;28;20676;-59
2023/04/03 04:46:07;;;;;;;0.20;0.20;;;;;;;;;;5090443;28;20226;-59
2023/04/03 04:48:34;;;;;;;0.10;0.10;;;;;;;;;;5090367;28;20206;-60
2023/04/03 04:51:01;;;;;;;4.03;0.30;;;;;;;;;;5089975;28;20222;-59
2023/04/03 04:53:29;;;;;;;0.57;0.30;;;;;;;;;;5090728;28;20214;-59
2023/04/03 04:55:56;;;;;;;0.03;0.03;;;;;;;;;;5089904;28;20202;-59
2023/04/03 04:58:25;;;;;;;0.20;0.20;;;;;;;;;;5089736;28;20305;-59
2023/04/03 05:00:59;;;;;;;1.97;0.30;;;;;;;;;;5089972;28;20198;-59
2023/04/03 05:03:26;;;;;;;0.20;0.20;;;;;;;;;;5087391;28;20215;-59
2023/04/03 05:05:53;;;;;;;4.07;0.27;;;;;;;;;;5089841;28;20202;-59
2023/04/03 05:08:20;;;;;;;0.00;0.00;;;;;;;;;;5090107;28;20194;-59
2023/04/03 05:10:47;;;;;;;0.20;0.20;;;;;;;;;;5090253;28;20226;-58
2023/04/03 05:13:14;;;;;;;0.00;0.00;;;;;;;;;;5089616;28;20660;-59
2023/04/03 05:15:43;;;;;;;0.00;0.00;;;;;;;;;;5089954;28;20251;-58
2023/04/03 05:18:10;;;;;;;2.80;0.20;;;;;;;;;;5089358;28;20213;-59
2023/04/03 05:20:37;;;;;;;0.00;0.00;;;;;;;;;;5089417;28;20305;-58
2023/04/03 05:23:04;;;;;;;0.10;0.10;;;;;;;;;;5090020;28;20767;-59
2023/04/03 05:25:31;;;;;;;2.03;0.63;;;;;;;;;;5089116;28;20203;-59
2023/04/03 05:27:59;;;;;;;2.17;0.73;;;;;;;;;;5090061;28;20696;-59
2023/04/03 05:30:26;;;;;;;0.43;0.43;;;;;;;;;;5089041;28;20218;-59
2023/04/03 05:32:54;;;;;;;3.43;0.60;;;;;;;;;;5090067;28;20198;-59
2023/04/03 05:35:21;;;;;;;0.30;0.30;;;;;;;;;;5089265;28;20271;-59
2023/04/03 05:37:48;;;;;;;0.53;0.47;;;;;;;;;;5088446;28;20202;-59
2023/04/03 05:40:15;;;;;;;0.00;0.00;;;;;;;;;;5089533;28;20202;-59
2023/04/03 05:42:42;;;;;;;0.00;0.00;;;;;;;;;;5088968;28;20203;-59
2023/04/03 05:45:10;;;;;;;0.07;0.07;;;;;;;;;;5087720;28;20221;-60
2023/04/03 05:47:37;;;;;;;5.93;0.77;;;;;;;;;;5088959;28;20206;-59
2023/04/03 05:50:06;;;;;;;3.90;0.63;;;;;;;;;;5089477;28;20238;-59
2023/04/03 05:52:34;;;;;;;0.57;0.50;;;;;;;;;;5089347;28;20256;-59
2023/04/03 05:55:02;;;;;;;1.60;0.30;;;;;;;;;;5089643;28;20209;-59
2023/04/03 05:57:29;;;;;;;2.57;0.40;;;;;;;;;;5088739;28;20209;-59
2023/04/03 05:59:56;;;;;;;0.00;0.00;;;;;;;;;;5089426;28;20206;-60
2023/04/03 06:02:25;;;;;;;1.20;0.53;;;;;;;;;;5088718;28;20195;-59
2023/04/03 06:04:52;;;;;;;1.13;0.40;;;;;;;;;;5089107;28;20210;-59
2023/04/03 06:07:22;;;;;;;0.40;0.40;;;;;;;;;;5088967;28;20320;-59
2023/04/03 06:09:50;;;;;;;0.43;0.43;;;;;;;;;;5087797;28;20713;-60
2023/04/03 06:12:18;;;;;;;2.47;1.53;;;;;;;;;;5088423;28;20585;-59
2023/04/03 06:14:45;;;;;;;0.20;0.20;;;;;;;;;;5089407;28;20210;-59
2023/04/03 06:17:13;;;;;;;0.20;0.20;;;;;;;;;;5089006;28;20265;-59
2023/04/03 06:19:40;;;;;;;1.50;0.40;;;;;;;;;;5089148;28;20620;-59
2023/04/03 06:22:07;;;;;;;0.40;0.40;;;;;;;;;;5088954;28;20234;-59
2023/04/03 06:24:36;;;;;;;2.00;0.20;;;;;;;;;;5088842;28;20280;-59
2023/04/03 06:27:04;;;;;;;0.20;0.20;;;;;;;;;;5088938;28;20317;-60
2023/04/03 06:29:31;;;;;;;0.60;0.60;;;;;;;;;;5088544;28;20222;-59
2023/04/03 06:31:58;;;;;;;2.40;0.77;;;;;;;;;;5089055;28;20206;-60
2023/04/03 06:34:25;;;;;;;1.43;1.33;;;;;;;;;;5088859;28;20217;-60
2023/04/03 06:36:52;;;;;;;0.77;0.77;;;;;;;;;;5089137;28;20202;-59
2023/04/03 06:39:21;;;;;;;0.37;0.37;;;;;;;;;;5088532;28;20213;-59
2023/04/03 06:41:49;;;;;;;1.03;0.30;;;;;;;;;;5089179;28;20241;-60
2023/04/03 06:44:16;;;;;;;0.30;0.30;;;;;;;;;;5088305;28;20244;-60
2023/04/03 06:46:44;;;;;;;0.30;0.30;;;;;;;;;;5088981;28;20553;-60
2023/04/03 06:49:12;;;;;;;0.30;0.30;;;;;;;;;;5088668;28;20634;-60
2023/04/03 06:51:39;;;;;;;0.50;0.30;;;;;;;;;;5088290;28;20206;-60
2023/04/03 06:54:07;;;;;;;0.20;0.10;;;;;;;;;;5088949;28;20210;-58
2023/04/03 06:56:35;;;;;;;2.67;0.60;;;;;;;;;;5088629;28;20211;-60
2023/04/03 06:59:04;;;;;;;0.30;0.30;;;;;;;;;;5087962;28;20202;-59
2023/04/03 07:01:31;;;;;;;0.73;0.73;;;;;;;;;;5088776;28;20209;-60
2023/04/03 07:03:59;;;;;;;0.20;0.20;;;;;;;;;;5088947;28;20704;-59
2023/04/03 07:06:27;;;;;;;4.07;0.30;;;;;;;;;;5088452;28;20232;-59
2023/04/03 07:08:54;;;;;;;0.50;0.37;;;;;;;;;;5088704;28;20283;-59
2023/04/03 07:11:22;;;;;;;1.80;0.50;;;;;;;;;;5088604;28;20241;-60
2023/04/03 07:13:49;;;;;;;0.30;0.20;;;;;;;;;;5088240;28;20206;-60
2023/04/03 07:16:17;;;;;;;0.47;0.47;;;;;;;;;;5087926;28;20571;-58
2023/04/03 07:18:45;;;;;;;1.50;0.30;;;;;;;;;;5088300;28;20667;-59
2023/04/03 07:21:12;;;;;;;1.23;0.57;;;;;;;;;;5088435;28;20229;-59
2023/04/03 07:23:39;;;;;;;0.20;0.20;;;;;;;;;;5091470;28;20237;-59
2023/04/03 07:26:07;;;;;;;0.30;0.30;;;;;;;;;;5092530;28;20569;-61
2023/04/03 07:28:34;;;;;;;0.50;0.50;;;;;;;;;;5091935;28;20211;-59
2023/04/03 07:31:02;;;;;;;0.47;0.47;;;;;;;;;;5091562;28;20233;-59
2023/04/03 07:33:31;;;;;;;0.60;0.60;;;;;;;;;;5092078;28;20205;-59
2023/04/03 07:35:58;;;;;;;0.10;0.10;;;;;;;;;;5091975;28;20236;-58
2023/04/03 07:38:26;;;;;;;0.13;0.13;;;;;;;;;;5091768;28;20221;-59
2023/04/03 07:40:53;;;;;;;0.30;0.23;;;;;;;;;;5092254;28;20197;-59
2023/04/03 07:43:21;;;;;;;1.40;0.50;;;;;;;;;;5092114;28;20220;-59
2023/04/03 07:45:50;;;;;;;0.13;0.13;;;;;;;;;;5088792;28;20204;-59
2023/04/03 07:48:18;;;;;;;0.50;0.40;;;;;;;;;;5091044;28;20261;-60
2023/04/03 07:50:46;;;;;;;0.30;0.30;;;;;;;;;;5091784;28;20746;-59
2023/04/03 07:53:13;;;;;;;0.43;0.43;;;;;;;;;;5091053;28;20230;-59
2023/04/03 07:55:43;;;;;;;0.30;0.30;;;;;;;;;;5091611;28;20210;-58
2023/04/03 07:58:10;;;;;;;12.77;0.90;;;;;;;;;;5092191;28;20199;-59
2023/04/03 08:00:38;;;;;;;0.43;0.43;;;;;;;;;;5090867;28;20206;-59
2023/04/03 08:03:05;;;;;;;1.70;0.67;;;;;;;;;;5090790;28;20686;-59
2023/04/03 08:05:33;;;;;;;0.40;0.40;;;;;;;;;;5091889;28;20569;-58
2023/04/03 08:08:09;;;;;;;0.10;0.07;;;;;;;;;;5091820;28;20219;-60
2023/04/03 08:10:36;;;;;;;0.40;0.40;;;;;;;;;;5089333;28;20348;-59
2023/04/03 08:13:03;;;;;;;0.87;0.87;;;;;;;;;;5090580;28;20213;-59
2023/04/03 08:15:31;;;;;;;1.90;0.30;;;;;;;;;;5090450;28;20214;-62
2023/04/03 08:17:58;;;;;;;0.27;0.17;;;;;;;;;;5091201;28;20212;-58
2023/04/03 08:20:26;;;;;;;0.40;0.23;;;;;;;;;;5090407;28;20209;-59
2023/04/03 08:22:53;;;;;;;0.20;0.20;;;;;;;;;;5090202;28;20245;-60
2023/04/03 08:25:21;;;;;;;0.03;0.03;;;;;;;;;;5090927;28;20263;-59
2023/04/03 08:27:48;;;;;;;1.73;0.67;;;;;;;;;;5090350;28;20684;-59
2023/04/03 08:30:15;;;;;;;0.73;0.20;;;;;;;;;;5090647;28;20236;-59
2023/04/03 08:32:43;;;;;;;0.20;0.20;;;;;;;;;;5090942;28;20512;-59
2023/04/03 08:35:11;;;;;;;0.13;0.13;;;;;;;;;;5090191;28;20361;-59
2023/04/03 08:37:38;;;;;;;0.10;0.10;;;;;;;;;;5090266;28;20210;-60
2023/04/03 08:40:05;;;;;;;0.87;0.87;;;;;;;;;;5090478;28;20229;-58
2023/04/03 08:42:39;;;;;;;3.47;0.77;;;;;;;;;;5090296;28;20209;-59
2023/04/03 08:45:11;;;;;;;3.40;0.70;;;;;;;;;;5089959;28;20233;-59
2023/04/03 08:47:40;;;;;;;0.93;0.60;;;;;;;;;;5090634;28;20206;-59
2023/04/03 08:50:09;;;;;;;1.77;0.90;;;;;;;;;;5090503;28;20226;-59
2023/04/03 08:52:37;;;;;;;0.50;0.50;;;;;;;;;;5090417;28;20815;-59
2023/04/03 08:55:06;;;;;;;0.20;0.20;;;;;;;;;;5089744;28;20303;-60
2023/04/03 08:57:35;;;;;;;0.40;0.40;;;;;;;;;;5089683;28;20210;-59
2023/04/03 09:00:07;;;;;;;0.60;0.60;;;;;;;;;;5086580;28;20695;-59
2023/04/03 09:02:36;;;;;;;6.07;0.50;;;;;;;;;;5087774;28;20207;-59
2023/04/03 09:05:03;;;;;;;0.50;0.50;;;;;;;;;;5088351;28;20255;-59
2023/04/03 09:07:34;;;;;;;1.30;0.50;;;;;;;;;;5088935;28;20214;-59
2023/04/03 09:10:02;;;;;;;5.37;0.70;;;;;;;;;;5089685;28;20259;-59
2023/04/03 09:12:33;;;;;;;1.90;0.60;;;;;;;;;;5089289;28;20210;-58
2023/04/03 09:15:05;;;;;;;0.40;0.33;;;;;;;;;;5087973;28;20202;-59
2023/04/03 09:17:38;;;;;;;0.53;0.53;;;;;;;;;;5087946;28;20301;-58
2023/04/03 09:20:12;;;;;;;1.50;0.67;;;;;;;;;;5089868;28;20221;-59
2023/04/03 09:22:40;;;;;;;2.13;0.77;;;;;;;;;;5069616;28;20713;-59
2023/04/03 09:25:12;;;;;;;0.30;0.30;;;;;;;;;;5069745;28;20206;-59
2023/04/03 09:27:39;;;;;;;0.50;0.30;;;;;;;;;;5069785;28;20207;-58
2023/04/03 09:30:07;;;;;;;0.20;0.20;;;;;;;;;;5073886;28;20298;-59
2023/04/03 09:32:36;;;;;;;0.30;0.30;;;;;;;;;;5089149;28;20280;-58
2023/04/03 09:35:05;;;;;;;2.47;0.67;;;;;;;;;;5089383;28;20202;-58
2023/04/03 09:37:38;;;;;;;0.30;0.30;;;;;;;;;;5089144;28;20210;-58
2023/04/03 09:40:05;;;;;;;0.03;0.03;;;;;;;;;;5088645;28;20250;-60
2023/04/03 09:42:33;;;;;;;0.43;0.43;;;;;;;;;;5089149;28;20206;-59
2023/04/03 09:45:01;;;;;;;1.70;0.30;;;;;;;;;;5088420;28;20194;-58
2023/04/03 09:47:30;;;;;;;1.83;0.20;;;;;;;;;;5089011;28;20210;-59
2023/04/03 09:50:19;;;;;;;0.40;0.30;;;;;;;;;;5089126;28;20210;-58
2023/04/03 09:52:48;;;;;;;0.40;0.40;;;;;;;;;;5089745;28;20472;-58
2023/04/03 09:55:16;;;;;;;0.77;0.43;;;;;;;;;;5088961;28;20214;-58
2023/04/03 09:57:43;;;;;;;0.17;0.17;;;;;;;;;;5089180;28;20210;-60
2023/04/03 10:00:21;;;;;;;0.10;0.10;;;;;;;;;;5089147;28;20202;-60
2023/04/03 10:02:51;;;;;;;0.30;0.30;;;;;;;;;;5089517;28;20704;-58
2023/04/03 10:05:31;;;;;;;0.77;0.77;;;;;;;;;;5088981;28;20214;-60
2023/04/03 10:08:23;;;;;;;0.47;0.13;;;;;;;;;;5086685;28;20206;-58
2023/04/03 10:11:06;;;;;;;0.37;0.13;;;;;;;;;;5086633;28;20683;-58
2023/04/03 10:13:33;;;;;;;0.30;0.30;;;;;;;;;;5087207;28;20423;-58
2023/04/03 10:16:03;;;;;;;0.10;0.10;;;;;;;;;;5086879;28;20213;-58
2023/04/03 10:18:32;;;;;;;0.67;0.67;;;;;;;;;;5087383;28;20212;-59
2023/04/03 10:21:06;;;;;;;1.40;0.67;;;;;;;;;;5087019;28;20203;-59
2023/04/03 10:23:34;;;;;;;0.93;0.40;;;;;;;;;;5086717;28;20242;-59
2023/04/03 10:26:07;;;;;;;0.07;0.07;;;;;;;;;;5084745;28;20359;-59
2023/04/03 10:28:37;;;;;;;0.30;0.30;;;;;;;;;;5074136;28;20211;-59
2023/04/03 10:31:08;;;;;;;0.40;0.40;;;;;;;;;;5085726;28;20373;-59
2023/04/03 10:33:41;;;;;;;1.50;0.40;;;;;;;;;;5086945;28;20199;-59
2023/04/03 10:36:15;;;;;;;1.03;0.20;;;;;;;;;;5086862;28;20206;-59
2023/04/03 10:38:45;;;;;;;0.83;0.73;;;;;;;;;;5086805;28;20245;-60
2023/04/03 10:41:14;;;;;;;1.70;0.70;;;;;;;;;;5075618;28;20207;-60
2023/04/03 10:43:44;;;;;;;0.37;0.37;;;;;;;;;;5076634;28;20202;-60
2023/04/03 10:46:16;;;;;;;1.00;1.00;;;;;;;;;;5077705;28;20302;-60
2023/04/03 10:48:57;;;;;;;0.80;0.50;;;;;;;;;;5077484;28;20309;-60
2023/04/03 10:51:27;;;;;;;0.47;0.47;;;;;;;;;;5087717;28;20233;-60
2023/04/03 10:53:58;;;;;;;0.13;0.13;;;;;;;;;;5087620;28;20252;-60
2023/04/03 10:56:31;;;;;;;0.40;0.30;;;;;;;;;;5079524;28;20234;-57
2023/04/03 10:59:00;;;;;;;0.20;0.20;;;;;;;;;;5084009;28;20214;-58
2023/04/03 11:01:32;;;;;;;0.30;0.30;;;;;;;;;;5090688;28;20206;-61
2023/04/03 11:04:00;;;;;;;0.60;0.43;;;;;;;;;;5076923;28;20195;-58
2023/04/03 11:06:33;;;;;;;0.20;0.20;;;;;;;;;;5091339;28;20700;-59
2023/04/03 11:09:06;;;;;;;1.37;0.60;;;;;;;;;;5090172;28;20209;-59
2023/04/03 11:11:35;;;;;;;0.37;0.37;;;;;;;;;;5074007;28;20266;-58
2023/04/03 11:14:03;;;;;;;2.27;0.37;;;;;;;;;;5080756;28;20214;-59
2023/04/03 11:16:32;;;;;;;0.60;0.60;;;;;;;;;;5091018;28;20206;-59
2023/04/03 11:19:00;;;;;;;0.47;0.40;;;;;;;;;;5090459;28;20211;-59
2023/04/03 11:21:31;;;;;;;0.30;0.30;;;;;;;;;;5090827;28;20316;-59
2023/04/03 11:23:59;;;;;;;0.30;0.30;;;;;;;;;;5089667;28;20269;-59
2023/04/03 11:26:29;;;;;;;0.10;0.10;;;;;;;;;;5090367;28;20202;-59
2023/04/03 11:28:59;;;;;;;0.57;0.57;;;;;;;;;;5090180;28;20874;-58
2023/04/03 11:31:35;;;;;;;2.77;0.50;;;;;;;;;;5079574;28;20234;-59
2023/04/03 11:34:07;;;;;;;0.30;0.30;;;;;;;;;;5089529;28;20271;-59
2023/04/03 11:36:40;;;;;;;0.50;0.50;;;;;;;;;;5089700;28;20206;-59
2023/04/03 11:39:11;;;;;;;0.50;0.50;;;;;;;;;;5091329;28;20202;-58
2023/04/03 11:41:38;;;;;;;2.30;0.83;;;;;;;;;;5090503;28;20210;-58
2023/04/03 11:44:07;;;;;;;0.20;0.20;;;;;;;;;;5090352;28;20250;-58
2023/04/03 11:46:52;;;;;;;0.23;0.23;;;;;;;;;;5091036;28;20195;-58
2023/04/03 11:49:38;;;;;;;0.40;0.40;;;;;;;;;;5091287;28;20259;-58
2023/04/03 11:52:10;;;;;;;0.10;0.10;;;;;;;;;;5090356;28;20230;-59
2023/04/03 11:54:49;;;;;;;1.13;0.53;;;;;;;;;;5091128;28;20672;-59
2023/04/03 11:57:34;;;;;;;0.10;0.10;;;;;;;;;;5091093;28;20202;-59
2023/04/03 12:00:03;;;;;;;0.93;0.10;;;;;;;;;;5090807;28;20226;-59
2023/04/03 12:02:37;;;;;;;0.47;0.40;;;;;;;;;;5090510;28;20198;-59
2023/04/03 12:05:23;;;;;;;0.60;0.60;;;;;;;;;;5091028;28;20226;-59
2023/04/03 12:08:17;;;;;;;0.53;0.40;;;;;;;;;;5089021;28;20206;-58
2023/04/03 12:10:44;;;;;;;1.03;0.37;;;;;;;;;;5090631;28;20205;-58
2023/04/03 12:13:17;;;;;;;0.53;0.30;;;;;;;;;;5090580;28;20297;-59
2023/04/03 12:15:54;;;;;;;0.00;0.00;;;;;;;;;;5089163;28;20213;-58
2023/04/03 12:18:41;;;;;;;0.20;0.20;;;;;;;;;;5091406;28;20259;-59
2023/04/03 12:21:18;;;;;;;2.10;0.53;;;;;;;;;;5088902;28;20604;-59
2023/04/03 12:24:06;;;;;;;0.63;0.33;;;;;;;;;;5089752;28;20234;-58
2023/04/03 12:26:35;;;;;;;1.07;0.40;;;;;;;;;;5089775;28;20198;-60
2023/04/03 12:29:12;;;;;;;0.67;0.67;;;;;;;;;;5089933;28;20206;-58
2023/04/03 12:31:43;;;;;;;0.83;0.60;;;;;;;;;;5070240;28;20242;-59
2023/04/03 12:34:25;;;;;;;0.30;0.30;;;;;;;;;;5080439;28;20656;-59
2023/04/03 12:36:59;;;;;;;0.40;0.40;;;;;;;;;;5090354;28;20214;-59
2023/04/03 12:39:44;;;;;;;0.37;0.37;;;;;;;;;;5090026;28;20221;-59
2023/04/03 12:42:19;;;;;;;0.30;0.30;;;;;;;;;;5090231;28;20653;-59
2023/04/03 12:44:49;;;;;;;0.20;0.20;;;;;;;;;;5089759;28;20864;-59
2023/04/03 12:47:23;;;;;;;8.90;2.93;;;;;;;;;;5090128;28;20210;-61
2023/04/03 12:49:51;;;;;;;0.50;0.50;;;;;;;;;;5087323;28;20210;-60
2023/04/03 12:52:22;;;;;;;2.60;0.53;;;;;;;;;;5082877;28;20843;-59
2023/04/03 12:54:51;;;;;;;0.17;0.17;;;;;;;;;;5077509;28;20222;-59
2023/04/03 12:57:20;;;;;;;0.40;0.40;;;;;;;;;;5084897;28;20685;-59
2023/04/03 12:59:47;;;;;;;0.30;0.30;;;;;;;;;;5087976;28;20210;-59
2023/04/03 13:02:21;;;;;;;0.20;0.20;;;;;;;;;;5089206;28;20202;-59
2023/04/03 13:04:48;;;;;;;0.50;0.50;;;;;;;;;;5089417;28;20234;-59
2023/04/03 13:07:25;;;;;;;0.17;0.17;;;;;;;;;;5089223;28;20218;-58
2023/04/03 13:09:59;;;;;;;0.37;0.20;;;;;;;;;;5088815;28;20243;-59
2023/04/03 13:12:28;;;;;;;0.33;0.33;;;;;;;;;;5089183;28;20337;-59
2023/04/03 13:14:56;;;;;;;0.60;0.40;;;;;;;;;;5088902;28;20226;-58
2023/04/03 13:17:23;;;;;;;0.20;0.20;;;;;;;;;;5089287;28;20210;-59
2023/04/03 13:19:51;;;;;;;0.93;0.43;;;;;;;;;;5088182;28;20206;-60
2023/04/03 13:22:27;;;;;;;0.03;0.03;;;;;;;;;;5088669;28;20228;-59
2023/04/03 13:24:54;;;;;;;0.10;0.10;;;;;;;;;;5088224;28;20205;-60
2023/04/03 13:27:22;;;;;;;0.17;0.17;;;;;;;;;;5089036;28;20662;-60
2023/04/03 13:29:53;;;;;;;0.17;0.17;;;;;;;;;;5089131;28;20206;-59
2023/04/03 13:32:29;;;;;;;0.10;0.10;;;;;;;;;;5089298;28;20218;-60
2023/04/03 13:34:56;;;;;;;0.23;0.23;;;;;;;;;;5085955;28;20955;-59
2023/04/03 13:37:25;;;;;;;0.50;0.50;;;;;;;;;;5088225;28;20209;-59
2023/04/03 13:40:11;;;;;;;0.30;0.13;;;;;;;;;;5084924;28;20556;-60
2023/04/03 13:42:40;;;;;;;0.17;0.17;;;;;;;;;;5085053;28;20244;-61
2023/04/03 13:45:10;;;;;;;1.37;0.50;;;;;;;;;;5085124;28;20260;-60
2023/04/03 13:47:40;;;;;;;10.13;0.80;;;;;;;;;;5084908;28;20926;-61
2023/04/03 13:50:15;;;;;;;0.10;0.10;;;;;;;;;;5085130;28;20202;-60
2023/04/03 13:52:43;;;;;;;0.87;0.20;;;;;;;;;;5085019;28;20205;-59
2023/04/03 13:55:18;;;;;;;0.30;0.30;;;;;;;;;;5085201;28;20246;-59
2023/04/03 13:57:51;;;;;;;0.27;0.27;;;;;;;;;;5085015;28;20202;-58
2023/04/03 14:00:23;;;;;;;0.50;0.50;;;;;;;;;;5085215;28;20213;-59
2023/04/03 14:02:50;;;;;;;0.30;0.30;;;;;;;;;;5085046;28;20218;-60
2023/04/03 14:05:21;;;;;;;1.47;0.60;;;;;;;;;;5084565;28;20209;-59
2023/04/03 14:07:48;;;;;;;0.50;0.50;;;;;;;;;;5085037;28;20325;-58
2023/04/03 14:10:16;;;;;;;0.30;0.30;;;;;;;;;;5081622;28;20221;-59
2023/04/03 14:12:45;;;;;;;0.20;0.20;;;;;;;;;;5082335;28;20526;-58
2023/04/03 14:15:17;;;;;;;0.50;0.20;;;;;;;;;;5083058;28;20218;-60
2023/04/03 14:17:44;;;;;;;0.30;0.30;;;;;;;;;;5083730;28;20673;-60
2023/04/03 14:20:12;;;;;;;0.70;0.70;;;;;;;;;;5084795;28;20218;-60
2023/04/03 14:22:39;;;;;;;0.87;0.83;;;;;;;;;;5083863;28;20243;-59
2023/04/03 14:25:07;;;;;;;0.50;0.50;;;;;;;;;;5083977;28;20217;-59
2023/04/03 14:27:37;;;;;;;0.60;0.60;;;;;;;;;;5082696;28;20206;-59
2023/04/03 14:30:05;;;;;;;0.57;0.53;;;;;;;;;;5065696;28;20685;-59
2023/04/03 14:32:32;;;;;;;0.73;0.70;;;;;;;;;;5077151;28;20952;-59
2023/04/03 14:35:00;;;;;;;0.40;0.40;;;;;;;;;;5084456;28;20218;-59
2023/04/03 14:37:29;;;;;;;0.73;0.73;;;;;;;;;;5073174;28;20199;-59
2023/04/03 14:39:57;;;;;;;1.30;0.73;;;;;;;;;;5071478;28;20704;-59
2023/04/03 14:42:25;;;;;;;0.23;0.23;;;;;;;;;;5065761;28;20203;-59
2023/04/03 14:44:54;;;;;;;0.20;0.20;;;;;;;;;;5074924;28;20230;-59
2023/04/03 14:47:22;;;;;;;0.83;0.60;;;;;;;;;;5064084;28;20203;-60
2023/04/03 14:49:49;;;;;;;1.03;0.60;;;;;;;;;;5059016;28;20211;-59
2023/04/03 14:52:19;;;;;;;0.60;0.60;;;;;;;;;;5050448;28;20211;-60
2023/04/03 14:54:46;;;;;;;0.70;0.70;;;;;;;;;;5061434;28;20211;-59
2023/04/03 14:57:15;;;;;;;0.47;0.47;;;;;;;;;;5068300;28;20207;-59